sensor_id;sensor_type;location;lat;lon;timestamp;pressure;altitude;pressure_sealevel;temperature;humidity
13312;BME280;34033;48.672;9.376;2023-04-24T00:00:50;97533.63;;;13.83;65.13
13312;BME280;34033;48.672;9.376;2023-04-24T00:03:16;97521.59;;;13.82;65.94
13312;BME280;34033;48.672;9.376;2023-04-24T00:05:42;97522.72;;;13.85;65.74
13312;BME280;34033;48.672;9.376;2023-04-24T00:08:07;97525.50;;;13.88;65.70
13312;BME280;34033;48.672;9.376;2023-04-24T00:10:32;97531.69;;;13.79;65.48
13312;BME280;34033;48.672;9.376;2023-04-24T00:12:58;97529.66;;;13.80;65.65
13312;BME280;34033;48.672;9.376;2023-04-24T00:15:23;97530.09;;;13.78;65.87
13312;BME280;34033;48.672;9.376;2023-04-24T00:17:49;97531.34;;;13.77;66.13
13312;BME280;34033;48.672;9.376;2023-04-24T00:20:14;97532.41;;;13.84;65.69
13312;BME280;34033;48.672;9.376;2023-04-24T00:22:40;97533.03;;;13.91;65.60
13312;BME280;34033;48.672;9.376;2023-04-24T00:25:06;97537.56;;;13.85;65.57
13312;BME280;34033;48.672;9.376;2023-04-24T00:27:31;97552.69;;;13.91;65.52
13312;BME280;34033;48.672;9.376;2023-04-24T00:29:56;97547.03;;;13.95;65.30
13312;BME280;34033;48.672;9.376;2023-04-24T00:32:22;97547.72;;;13.99;64.74
13312;BME280;34033;48.672;9.376;2023-04-24T00:34:47;97537.63;;;14.01;65.25
13312;BME280;34033;48.672;9.376;2023-04-24T00:37:12;97536.91;;;13.97;65.14
13312;BME280;34033;48.672;9.376;2023-04-24T00:39:37;97535.41;;;13.93;64.46
13312;BME280;34033;48.672;9.376;2023-04-24T00:42:03;97543.69;;;14.00;64.75
13312;BME280;34033;48.672;9.376;2023-04-24T00:44:31;97531.94;;;14.05;64.60
13312;BME280;34033;48.672;9.376;2023-04-24T00:46:56;97539.41;;;14.11;64.78
13312;BME280;34033;48.672;9.376;2023-04-24T00:49:23;97531.69;;;14.15;64.62
13312;BME280;34033;48.672;9.376;2023-04-24T00:51:49;97532.31;;;14.23;63.98
13312;BME280;34033;48.672;9.376;2023-04-24T00:54:16;97534.31;;;14.23;63.88
13312;BME280;34033;48.672;9.376;2023-04-24T00:56:44;97533.38;;;14.29;64.16
13312;BME280;34033;48.672;9.376;2023-04-24T00:59:10;97535.22;;;14.19;63.36
13312;BME280;34033;48.672;9.376;2023-04-24T01:01:36;97535.63;;;14.18;63.97
13312;BME280;34033;48.672;9.376;2023-04-24T01:04:01;97525.88;;;14.06;63.74
13312;BME280;34033;48.672;9.376;2023-04-24T01:06:28;97527.13;;;14.05;64.17
13312;BME280;34033;48.672;9.376;2023-04-24T01:08:54;97520.97;;;14.10;63.81
13312;BME280;34033;48.672;9.376;2023-04-24T01:11:21;97520.97;;;14.10;63.75
13312;BME280;34033;48.672;9.376;2023-04-24T01:13:47;97516.22;;;14.07;63.55
13312;BME280;34033;48.672;9.376;2023-04-24T01:16:14;97512.19;;;14.08;63.99
13312;BME280;34033;48.672;9.376;2023-04-24T01:18:40;97505.66;;;14.11;63.62
13312;BME280;34033;48.672;9.376;2023-04-24T01:21:07;97505.50;;;14.18;63.76
13312;BME280;34033;48.672;9.376;2023-04-24T01:23:33;97502.97;;;14.24;63.75
13312;BME280;34033;48.672;9.376;2023-04-24T01:25:58;97506.06;;;14.30;62.84
13312;BME280;34033;48.672;9.376;2023-04-24T01:28:24;97508.44;;;14.31;63.12
13312;BME280;34033;48.672;9.376;2023-04-24T01:30:49;97503.94;;;14.34;63.02
13312;BME280;34033;48.672;9.376;2023-04-24T01:33:15;97497.09;;;14.35;63.12
13312;BME280;34033;48.672;9.376;2023-04-24T01:35:41;97500.31;;;14.37;63.15
13312;BME280;34033;48.672;9.376;2023-04-24T01:38:07;97489.84;;;14.37;63.64
13312;BME280;34033;48.672;9.376;2023-04-24T01:40:33;97490.66;;;14.38;63.67
13312;BME280;34033;48.672;9.376;2023-04-24T01:42:58;97498.63;;;14.39;64.15
13312;BME280;34033;48.672;9.376;2023-04-24T01:45:24;97492.94;;;14.43;64.44
13312;BME280;34033;48.672;9.376;2023-04-24T01:47:50;97494.84;;;14.46;63.91
13312;BME280;34033;48.672;9.376;2023-04-24T01:50:16;97490.13;;;14.43;63.75
13312;BME280;34033;48.672;9.376;2023-04-24T01:52:41;97497.75;;;14.42;63.93
13312;BME280;34033;48.672;9.376;2023-04-24T01:55:07;97507.78;;;14.43;63.72
13312;BME280;34033;48.672;9.376;2023-04-24T01:57:33;97502.69;;;14.38;63.73
13312;BME280;34033;48.672;9.376;2023-04-24T01:59:58;97503.94;;;14.34;63.91
13312;BME280;34033;48.672;9.376;2023-04-24T02:02:24;97508.00;;;14.33;64.45
13312;BME280;34033;48.672;9.376;2023-04-24T02:04:52;97504.84;;;14.31;64.22
13312;BME280;34033;48.672;9.376;2023-04-24T02:07:18;97499.56;;;14.33;64.07
13312;BME280;34033;48.672;9.376;2023-04-24T02:09:43;97501.13;;;14.34;64.46
13312;BME280;34033;48.672;9.376;2023-04-24T02:12:09;97493.16;;;14.32;64.43
13312;BME280;34033;48.672;9.376;2023-04-24T02:14:34;97492.69;;;14.34;64.09
13312;BME280;34033;48.672;9.376;2023-04-24T02:16:59;97492.38;;;14.32;64.56
13312;BME280;34033;48.672;9.376;2023-04-24T02:19:26;97493.16;;;14.32;64.65
13312;BME280;34033;48.672;9.376;2023-04-24T02:21:52;97496.31;;;14.34;64.91
13312;BME280;34033;48.672;9.376;2023-04-24T02:24:17;97503.94;;;14.34;65.73
13312;BME280;34033;48.672;9.376;2023-04-24T02:26:43;97505.09;;;14.20;65.77
13312;BME280;34033;48.672;9.376;2023-04-24T02:29:08;97508.94;;;14.10;66.11
13312;BME280;34033;48.672;9.376;2023-04-24T02:31:33;97499.50;;;14.00;67.21
13312;BME280;34033;48.672;9.376;2023-04-24T02:33:59;97509.88;;;14.03;67.53
13312;BME280;34033;48.672;9.376;2023-04-24T02:36:24;97508.31;;;14.02;67.84
13312;BME280;34033;48.672;9.376;2023-04-24T02:38:50;97500.75;;;13.99;68.57
13312;BME280;34033;48.672;9.376;2023-04-24T02:41:15;97494.78;;;13.97;68.74
13312;BME280;34033;48.672;9.376;2023-04-24T02:43:40;97504.34;;;14.00;68.76
13312;BME280;34033;48.672;9.376;2023-04-24T02:46:06;97509.53;;;14.01;68.96
13312;BME280;34033;48.672;9.376;2023-04-24T02:48:31;97507.34;;;14.09;69.02
13312;BME280;34033;48.672;9.376;2023-04-24T02:50:56;97501.09;;;14.01;68.84
13312;BME280;34033;48.672;9.376;2023-04-24T02:53:22;97505.91;;;14.01;69.25
13312;BME280;34033;48.672;9.376;2023-04-24T02:55:48;97501.88;;;14.02;69.42
13312;BME280;34033;48.672;9.376;2023-04-24T02:58:14;97506.72;;;14.01;69.84
13312;BME280;34033;48.672;9.376;2023-04-24T03:00:40;97511.47;;;14.04;70.09
13312;BME280;34033;48.672;9.376;2023-04-24T03:03:05;97513.41;;;14.07;69.45
13312;BME280;34033;48.672;9.376;2023-04-24T03:05:31;97500.25;;;14.04;69.93
13312;BME280;34033;48.672;9.376;2023-04-24T03:07:57;97499.88;;;14.02;69.61
13312;BME280;34033;48.672;9.376;2023-04-24T03:10:22;97499.16;;;13.98;70.71
13312;BME280;34033;48.672;9.376;2023-04-24T03:12:48;97499.69;;;13.93;70.29
13312;BME280;34033;48.672;9.376;2023-04-24T03:15:13;97492.91;;;13.91;70.77
13312;BME280;34033;48.672;9.376;2023-04-24T03:17:38;97494.72;;;13.81;71.41
13312;BME280;34033;48.672;9.376;2023-04-24T03:20:04;97490.84;;;13.75;72.26
13312;BME280;34033;48.672;9.376;2023-04-24T03:22:30;97490.06;;;13.74;71.94
13312;BME280;34033;48.672;9.376;2023-04-24T03:24:57;97492.81;;;13.78;72.91
13312;BME280;34033;48.672;9.376;2023-04-24T03:27:23;97499.28;;;13.75;72.13
13312;BME280;34033;48.672;9.376;2023-04-24T03:29:48;97499.66;;;13.77;72.90
13312;BME280;34033;48.672;9.376;2023-04-24T03:32:18;97494.38;;;13.79;72.45
13312;BME280;34033;48.672;9.376;2023-04-24T03:34:44;97499.69;;;13.73;72.91
13312;BME280;34033;48.672;9.376;2023-04-24T03:37:09;97481.28;;;13.72;73.28
13312;BME280;34033;48.672;9.376;2023-04-24T03:39:35;97494.53;;;13.72;73.67
13312;BME280;34033;48.672;9.376;2023-04-24T03:42:00;97498.91;;;13.73;73.86
13312;BME280;34033;48.672;9.376;2023-04-24T03:44:25;97495.25;;;13.76;73.76
13312;BME280;34033;48.672;9.376;2023-04-24T03:46:51;97501.22;;;13.78;73.75
13312;BME280;34033;48.672;9.376;2023-04-24T03:49:16;97499.28;;;13.75;73.92
13312;BME280;34033;48.672;9.376;2023-04-24T03:51:41;97494.53;;;13.72;74.02
13312;BME280;34033;48.672;9.376;2023-04-24T03:54:07;97487.25;;;13.74;74.04
13312;BME280;34033;48.672;9.376;2023-04-24T03:56:32;97502.44;;;13.77;74.15
13312;BME280;34033;48.672;9.376;2023-04-24T03:58:57;97504.38;;;13.80;74.29
13312;BME280;34033;48.672;9.376;2023-04-24T04:01:23;97494.22;;;13.86;73.90
13312;BME280;34033;48.672;9.376;2023-04-24T04:03:49;97495.81;;;13.87;74.08
13312;BME280;34033;48.672;9.376;2023-04-24T04:06:14;97493.78;;;13.88;73.79
13312;BME280;34033;48.672;9.376;2023-04-24T04:08:39;97506.34;;;13.83;73.64
13312;BME280;34033;48.672;9.376;2023-04-24T04:11:05;97501.66;;;13.76;74.04
13312;BME280;34033;48.672;9.376;2023-04-24T04:13:30;97512.19;;;13.72;73.62
13312;BME280;34033;48.672;9.376;2023-04-24T04:15:56;97513.25;;;13.59;74.14
13312;BME280;34033;48.672;9.376;2023-04-24T04:18:21;97514.91;;;13.56;74.78
13312;BME280;34033;48.672;9.376;2023-04-24T04:20:46;97515.28;;;13.58;75.45
13312;BME280;34033;48.672;9.376;2023-04-24T04:23:12;97523.69;;;13.58;74.93
13312;BME280;34033;48.672;9.376;2023-04-24T04:25:37;97526.13;;;13.56;74.95
13312;BME280;34033;48.672;9.376;2023-04-24T04:28:02;97523.78;;;13.55;75.08
13312;BME280;34033;48.672;9.376;2023-04-24T04:30:27;97521.47;;;13.50;75.50
13312;BME280;34033;48.672;9.376;2023-04-24T04:32:54;97518.69;;;13.50;75.57
13312;BME280;34033;48.672;9.376;2023-04-24T04:35:20;97523.34;;;13.36;76.07
13312;BME280;34033;48.672;9.376;2023-04-24T04:37:45;97522.75;;;13.25;76.15
13312;BME280;34033;48.672;9.376;2023-04-24T04:40:11;97531.69;;;13.20;76.38
13312;BME280;34033;48.672;9.376;2023-04-24T04:42:37;97536.41;;;13.23;77.14
13312;BME280;34033;48.672;9.376;2023-04-24T04:45:08;97538.38;;;13.26;77.05
13312;BME280;34033;48.672;9.376;2023-04-24T04:47:34;97542.78;;;13.27;76.69
13312;BME280;34033;48.672;9.376;2023-04-24T04:50:00;97551.25;;;13.24;76.40
13312;BME280;34033;48.672;9.376;2023-04-24T04:52:25;97566.81;;;13.28;77.02
13312;BME280;34033;48.672;9.376;2023-04-24T04:54:51;97569.06;;;13.14;76.56
13312;BME280;34033;48.672;9.376;2023-04-24T04:57:17;97621.47;;;12.70;78.67
13312;BME280;34033;48.672;9.376;2023-04-24T04:59:42;97620.84;;;12.02;72.63
13312;BME280;34033;48.672;9.376;2023-04-24T05:02:08;97624.22;;;11.90;72.36
13312;BME280;34033;48.672;9.376;2023-04-24T05:04:34;97629.94;;;11.79;74.66
13312;BME280;34033;48.672;9.376;2023-04-24T05:06:59;97630.03;;;11.68;75.95
13312;BME280;34033;48.672;9.376;2023-04-24T05:09:24;97626.94;;;11.59;74.97
13312;BME280;34033;48.672;9.376;2023-04-24T05:11:52;97628.91;;;11.62;74.47
13312;BME280;34033;48.672;9.376;2023-04-24T05:14:17;97633.72;;;11.62;75.74
13312;BME280;34033;48.672;9.376;2023-04-24T05:16:44;97626.91;;;11.63;76.28
13312;BME280;34033;48.672;9.376;2023-04-24T05:19:09;97628.47;;;11.64;76.61
13312;BME280;34033;48.672;9.376;2023-04-24T05:21:36;97644.44;;;11.67;76.79
13312;BME280;34033;48.672;9.376;2023-04-24T05:24:02;97650.97;;;11.53;76.49
13312;BME280;34033;48.672;9.376;2023-04-24T05:26:27;97663.16;;;11.36;76.71
13312;BME280;34033;48.672;9.376;2023-04-24T05:28:53;97655.94;;;11.39;77.69
13312;BME280;34033;48.672;9.376;2023-04-24T05:31:18;97666.84;;;11.26;78.13
13312;BME280;34033;48.672;9.376;2023-04-24T05:33:43;97660.78;;;11.31;78.50
13312;BME280;34033;48.672;9.376;2023-04-24T05:36:08;97664.03;;;11.26;78.63
13312;BME280;34033;48.672;9.376;2023-04-24T05:38:34;97670.50;;;11.19;79.30
13312;BME280;34033;48.672;9.376;2023-04-24T05:40:59;97679.22;;;11.28;80.11
13312;BME280;34033;48.672;9.376;2023-04-24T05:43:25;97682.03;;;11.25;80.45
13312;BME280;34033;48.672;9.376;2023-04-24T05:45:50;97685.97;;;11.31;79.97
13312;BME280;34033;48.672;9.376;2023-04-24T05:48:15;97685.53;;;11.36;80.61
13312;BME280;34033;48.672;9.376;2023-04-24T05:50:41;97693.63;;;11.27;80.64
13312;BME280;34033;48.672;9.376;2023-04-24T05:53:06;97688.72;;;11.38;80.90
13312;BME280;34033;48.672;9.376;2023-04-24T05:55:32;97703.81;;;11.51;80.98
13312;BME280;34033;48.672;9.376;2023-04-24T05:57:57;97698.91;;;11.59;80.93
13312;BME280;34033;48.672;9.376;2023-04-24T06:00:24;97707.28;;;11.62;79.51
13312;BME280;34033;48.672;9.376;2023-04-24T06:02:49;97705.69;;;11.61;79.05
13312;BME280;34033;48.672;9.376;2023-04-24T06:05:14;97702.06;;;11.64;78.58
13312;BME280;34033;48.672;9.376;2023-04-24T06:07:40;97703.59;;;11.69;78.37
13312;BME280;34033;48.672;9.376;2023-04-24T06:10:05;97708.84;;;11.63;77.29
13312;BME280;34033;48.672;9.376;2023-04-24T06:12:31;97706.84;;;11.64;78.09
13312;BME280;34033;48.672;9.376;2023-04-24T06:14:56;97708.38;;;11.76;78.67
13312;BME280;34033;48.672;9.376;2023-04-24T06:17:22;97704.50;;;12.00;81.97
13312;BME280;34033;48.672;9.376;2023-04-24T06:19:47;97699.41;;;12.56;80.17
13312;BME280;34033;48.672;9.376;2023-04-24T06:22:12;97700.06;;;13.20;80.96
13312;BME280;34033;48.672;9.376;2023-04-24T06:24:39;97690.03;;;13.89;78.24
13312;BME280;34033;48.672;9.376;2023-04-24T06:27:05;97704.06;;;14.68;71.12
13312;BME280;34033;48.672;9.376;2023-04-24T06:29:30;97698.59;;;15.13;69.27
13312;BME280;34033;48.672;9.376;2023-04-24T06:31:55;97698.22;;;14.95;67.50
13312;BME280;34033;48.672;9.376;2023-04-24T06:34:21;97698.81;;;14.70;67.13
13312;BME280;34033;48.672;9.376;2023-04-24T06:36:46;97691.69;;;14.46;67.43
13312;BME280;34033;48.672;9.376;2023-04-24T06:39:12;97691.19;;;14.31;68.93
13312;BME280;34033;48.672;9.376;2023-04-24T06:41:37;97698.25;;;14.19;69.59
13312;BME280;34033;48.672;9.376;2023-04-24T06:44:03;97694.41;;;13.90;70.09
13312;BME280;34033;48.672;9.376;2023-04-24T06:46:28;97689.66;;;13.87;71.35
13312;BME280;34033;48.672;9.376;2023-04-24T06:48:54;97698.91;;;13.84;73.06
13312;BME280;34033;48.672;9.376;2023-04-24T06:51:25;97690.84;;;13.66;72.46
13312;BME280;34033;48.672;9.376;2023-04-24T06:53:52;97683.22;;;13.67;72.75
13312;BME280;34033;48.672;9.376;2023-04-24T06:56:18;97697.25;;;13.67;72.09
13312;BME280;34033;48.672;9.376;2023-04-24T06:58:43;97686.56;;;13.58;71.69
13312;BME280;34033;48.672;9.376;2023-04-24T07:01:12;97688.75;;;13.70;72.97
13312;BME280;34033;48.672;9.376;2023-04-24T07:03:40;97691.00;;;13.79;72.47
13312;BME280;34033;48.672;9.376;2023-04-24T07:06:14;97703.22;;;13.69;71.59
13312;BME280;34033;48.672;9.376;2023-04-24T07:08:43;97700.66;;;13.78;69.82
13312;BME280;34033;48.672;9.376;2023-04-24T07:11:18;97705.69;;;13.67;69.80
13312;BME280;34033;48.672;9.376;2023-04-24T07:13:44;97703.47;;;13.78;70.02
13312;BME280;34033;48.672;9.376;2023-04-24T07:16:18;97708.59;;;13.83;70.48
13312;BME280;34033;48.672;9.376;2023-04-24T07:18:45;97700.59;;;13.82;69.40
13312;BME280;34033;48.672;9.376;2023-04-24T07:21:14;97702.38;;;13.72;67.94
13312;BME280;34033;48.672;9.376;2023-04-24T07:23:44;97697.91;;;13.74;68.21
13312;BME280;34033;48.672;9.376;2023-04-24T07:26:10;97700.41;;;13.69;67.23
13312;BME280;34033;48.672;9.376;2023-04-24T07:28:40;97691.38;;;13.58;66.47
13312;BME280;34033;48.672;9.376;2023-04-24T07:31:07;97702.25;;;13.32;66.83
13312;BME280;34033;48.672;9.376;2023-04-24T07:33:33;97695.47;;;13.30;68.37
13312;BME280;34033;48.672;9.376;2023-04-24T07:35:58;97695.69;;;13.43;70.26
13312;BME280;34033;48.672;9.376;2023-04-24T07:38:24;97699.25;;;13.20;68.97
13312;BME280;34033;48.672;9.376;2023-04-24T07:40:51;97704.56;;;13.14;70.60
13312;BME280;34033;48.672;9.376;2023-04-24T07:43:16;97732.06;;;12.96;70.47
13312;BME280;34033;48.672;9.376;2023-04-24T07:45:42;97746.38;;;12.75;73.99
13312;BME280;34033;48.672;9.376;2023-04-24T07:48:08;97749.94;;;12.48;77.19
13312;BME280;34033;48.672;9.376;2023-04-24T07:50:34;97755.53;;;12.18;77.77
13312;BME280;34033;48.672;9.376;2023-04-24T07:53:00;97749.31;;;12.00;76.44
13312;BME280;34033;48.672;9.376;2023-04-24T07:55:25;97763.97;;;11.77;77.37
13312;BME280;34033;48.672;9.376;2023-04-24T07:57:50;97768.81;;;11.73;79.23
13312;BME280;34033;48.672;9.376;2023-04-24T08:00:16;97776.03;;;11.63;79.31
13312;BME280;34033;48.672;9.376;2023-04-24T08:02:42;97775.50;;;11.83;79.70
13312;BME280;34033;48.672;9.376;2023-04-24T08:05:07;97765.91;;;11.80;76.89
13312;BME280;34033;48.672;9.376;2023-04-24T08:07:33;97776.19;;;11.94;77.59
13312;BME280;34033;48.672;9.376;2023-04-24T08:09:58;97763.16;;;12.14;72.20
13312;BME280;34033;48.672;9.376;2023-04-24T08:12:24;97766.84;;;12.41;72.63
13312;BME280;34033;48.672;9.376;2023-04-24T08:14:50;97776.88;;;12.73;70.59
13312;BME280;34033;48.672;9.376;2023-04-24T08:17:16;97773.25;;;13.03;69.14
13312;BME280;34033;48.672;9.376;2023-04-24T08:19:41;97775.28;;;13.29;69.20
13312;BME280;34033;48.672;9.376;2023-04-24T08:22:12;97770.25;;;13.90;68.61
13312;BME280;34033;48.672;9.376;2023-04-24T08:24:38;97780.22;;;13.95;66.69
13312;BME280;34033;48.672;9.376;2023-04-24T08:27:03;97793.00;;;13.76;64.66
13312;BME280;34033;48.672;9.376;2023-04-24T08:29:28;97785.34;;;14.00;61.33
13312;BME280;34033;48.672;9.376;2023-04-24T08:31:54;97796.59;;;13.76;57.74
13312;BME280;34033;48.672;9.376;2023-04-24T08:34:20;97792.44;;;13.61;55.91
13312;BME280;34033;48.672;9.376;2023-04-24T08:36:46;97803.03;;;13.23;57.84
13312;BME280;34033;48.672;9.376;2023-04-24T08:39:11;97815.47;;;12.92;58.84
13312;BME280;34033;48.672;9.376;2023-04-24T08:41:37;97811.28;;;12.77;59.62
13312;BME280;34033;48.672;9.376;2023-04-24T08:44:03;97819.56;;;12.53;59.93
13312;BME280;34033;48.672;9.376;2023-04-24T08:46:29;97816.16;;;12.73;62.37
13312;BME280;34033;48.672;9.376;2023-04-24T08:48:56;97822.50;;;12.77;60.10
13312;BME280;34033;48.672;9.376;2023-04-24T08:51:22;97820.03;;;12.82;61.88
13312;BME280;34033;48.672;9.376;2023-04-24T08:53:48;97823.16;;;12.88;59.44
13312;BME280;34033;48.672;9.376;2023-04-24T08:56:13;97810.59;;;12.96;59.61
13312;BME280;34033;48.672;9.376;2023-04-24T08:58:39;97811.66;;;13.09;62.03
13312;BME280;34033;48.672;9.376;2023-04-24T09:01:05;97815.03;;;13.27;59.42
13312;BME280;34033;48.672;9.376;2023-04-24T09:03:33;97818.56;;;13.31;58.58
13312;BME280;34033;48.672;9.376;2023-04-24T09:05:58;97816.66;;;13.52;57.95
13312;BME280;34033;48.672;9.376;2023-04-24T09:08:25;97815.38;;;13.79;59.59
13312;BME280;34033;48.672;9.376;2023-04-24T09:10:51;97813.63;;;13.89;56.03
13312;BME280;34033;48.672;9.376;2023-04-24T09:13:18;97811.78;;;14.02;57.53
13312;BME280;34033;48.672;9.376;2023-04-24T09:15:44;97818.13;;;14.06;53.88
13312;BME280;34033;48.672;9.376;2023-04-24T09:18:09;97804.66;;;13.98;53.47
13312;BME280;34033;48.672;9.376;2023-04-24T09:23:26;97812.00;;;13.42;53.73
13312;BME280;34033;48.672;9.376;2023-04-24T09:25:55;97826.44;;;13.13;53.47
13312;BME280;34033;48.672;9.376;2023-04-24T09:28:25;97838.63;;;13.30;54.01
13312;BME280;34033;48.672;9.376;2023-04-24T09:31:14;97822.81;;;13.43;52.50
13312;BME280;34033;48.672;9.376;2023-04-24T09:36:19;97851.25;;;13.45;49.82
13312;BME280;34033;48.672;9.376;2023-04-24T09:38:44;97840.03;;;13.45;51.32
13312;BME280;34033;48.672;9.376;2023-04-24T09:41:13;97845.94;;;13.51;51.06
13312;BME280;34033;48.672;9.376;2023-04-24T09:43:38;97857.81;;;13.35;49.38
13312;BME280;34033;48.672;9.376;2023-04-24T09:46:07;97852.81;;;13.19;48.60
13312;BME280;34033;48.672;9.376;2023-04-24T09:48:36;97842.50;;;13.09;49.05
13312;BME280;34033;48.672;9.376;2023-04-24T09:51:03;97852.78;;;13.23;48.21
13312;BME280;34033;48.672;9.376;2023-04-24T09:53:30;97842.63;;;13.32;48.87
13312;BME280;34033;48.672;9.376;2023-04-24T09:56:01;97837.19;;;13.72;49.49
13312;BME280;34033;48.672;9.376;2023-04-24T09:58:28;97841.09;;;14.01;48.65
13312;BME280;34033;48.672;9.376;2023-04-24T10:00:55;97844.72;;;14.02;45.66
13312;BME280;34033;48.672;9.376;2023-04-24T10:03:24;97844.66;;;14.05;45.43
13312;BME280;34033;48.672;9.376;2023-04-24T10:05:51;97839.81;;;14.06;45.30
13312;BME280;34033;48.672;9.376;2023-04-24T10:08:17;97852.91;;;13.93;44.57
13312;BME280;34033;48.672;9.376;2023-04-24T10:10:44;97847.47;;;14.05;43.87
13312;BME280;34033;48.672;9.376;2023-04-24T10:13:10;97859.97;;;14.01;44.79
13312;BME280;34033;48.672;9.376;2023-04-24T10:15:37;97839.47;;;14.04;43.04
13312;BME280;34033;48.672;9.376;2023-04-24T10:18:04;97842.22;;;14.07;44.22
